< < Back
Terminal Aerodrome Forecast


Current Version              Previous Versions:   1  2  3  4  5  6  7  8  9  

Terminal Aerodrome Forecast

229
FTUS42 KFFC 060912 AAB
TAFFTY
TAF AMD
KFTY 060912Z 0609/0706 23004KT P6SM BKN008 BKN050
     FM061500 28008KT P6SM BKN012
     FM061700 24010KT P6SM BKN040 PROB30 0619/0623 5SM TSRA BKN025CB
     FM070200 28006KT P6SM SCT045 BKN200=

Latest METAR

985
SAUS70 KWBC 071100 RRG
MTRFTY
METAR KFTY 071053Z AUTO 00000KT 7SM CLR 21/19 A3016 RMK AO2 SLP203
T02060189


USA.gov is the U.S. government's official web portal to all federal, state and local government web resources and services.